createdAt,value
2023-01-20T00:01:37.983Z,14.55
2023-01-20T00:04:05.028Z,15.45
2023-01-20T00:06:32.173Z,14.43
2023-01-20T00:09:00.730Z,16.55
2023-01-20T00:11:28.384Z,15.15
2023-01-20T00:13:56.195Z,15.23
2023-01-20T00:16:23.873Z,16.35
2023-01-20T00:18:50.803Z,15.63
2023-01-20T00:21:17.700Z,16.70
2023-01-20T00:23:45.946Z,16.75
2023-01-20T00:26:18.498Z,15.73
2023-01-20T00:28:46.117Z,16.77
2023-01-20T00:31:18.619Z,15.50
2023-01-20T00:33:46.353Z,15.20
2023-01-20T00:36:14.706Z,13.98
2023-01-20T00:38:41.782Z,16.13
2023-01-20T00:41:08.960Z,15.82
2023-01-20T00:43:36.525Z,15.48
2023-01-20T00:46:04.942Z,15.75
2023-01-20T00:48:32.027Z,16.35
2023-01-20T00:50:58.871Z,16.15
2023-01-20T00:53:25.913Z,17.55
2023-01-20T00:55:52.691Z,15.90
2023-01-20T00:58:19.559Z,15.45
2023-01-20T01:00:51.222Z,14.13
2023-01-20T01:03:18.742Z,14.45
2023-01-20T01:05:46.196Z,15.52
2023-01-20T01:08:13.681Z,15.00
2023-01-20T01:10:41.044Z,15.40
2023-01-20T01:13:08.703Z,13.98
2023-01-20T01:15:36.079Z,15.32
2023-01-20T01:18:02.933Z,15.15
2023-01-20T01:20:30.090Z,14.43
2023-01-20T01:22:56.950Z,14.18
2023-01-20T01:25:23.728Z,14.07
2023-01-20T01:27:50.590Z,16.40
2023-01-20T01:30:17.564Z,14.13
2023-01-20T01:32:44.389Z,14.07
2023-01-20T01:35:11.222Z,13.52
2023-01-20T01:37:38.044Z,17.42
2023-01-20T01:40:05.455Z,15.70
2023-01-20T01:42:32.247Z,14.98
2023-01-20T01:45:11.671Z,15.38
2023-01-20T01:47:48.069Z,14.68
2023-01-20T01:50:22.469Z,15.63
2023-01-20T01:52:52.724Z,14.27
2023-01-20T01:55:22.548Z,15.88
2023-01-20T01:57:51.536Z,13.50
2023-01-20T02:00:19.082Z,14.57
2023-01-20T02:02:46.160Z,13.40
2023-01-20T02:05:14.809Z,14.10
2023-01-20T02:07:45.711Z,14.85
2023-01-20T02:10:13.248Z,12.73
2023-01-20T02:12:41.233Z,13.05
2023-01-20T02:15:08.646Z,13.63
2023-01-20T02:18:15.090Z,13.27
2023-01-20T02:20:50.994Z,12.83
2023-01-20T02:26:30.433Z,13.23
2023-01-20T02:29:05.989Z,13.13
2023-01-20T02:32:08.060Z,12.93
2023-01-20T02:34:48.178Z,12.95
2023-01-20T02:37:19.716Z,13.32
2023-01-20T02:40:12.496Z,14.65
2023-01-20T02:42:50.044Z,13.10
2023-01-20T02:45:25.786Z,13.23
2023-01-20T02:48:04.088Z,13.40
2023-01-20T02:50:51.102Z,12.48
2023-01-20T02:53:18.614Z,13.38
2023-01-20T02:55:50.372Z,12.80
2023-01-20T02:58:25.450Z,13.63
2023-01-20T03:00:56.442Z,12.27
2023-01-20T03:03:30.025Z,13.45
2023-01-20T03:05:59.829Z,11.82
2023-01-20T03:08:30.737Z,13.32
2023-01-20T03:11:03.936Z,13.60
2023-01-20T03:13:40.854Z,12.75
2023-01-20T03:16:17.305Z,12.68
2023-01-20T03:18:44.781Z,12.82
2023-01-20T03:21:13.473Z,14.80
2023-01-20T03:23:51.629Z,13.27
2023-01-20T03:26:21.277Z,13.43
2023-01-20T03:28:48.926Z,13.70
2023-01-20T03:31:15.879Z,12.27
2023-01-20T03:33:44.754Z,11.48
2023-01-20T03:36:14.834Z,11.55
2023-01-20T03:38:43.163Z,11.93
2023-01-20T03:41:47.298Z,11.75
2023-01-20T03:44:41.835Z,11.55
2023-01-20T03:47:37.269Z,13.25
2023-01-20T03:50:29.394Z,12.45
2023-01-20T03:53:19.487Z,11.75
2023-01-20T03:56:00.429Z,12.40
2023-01-20T03:58:39.217Z,11.82
2023-01-20T04:01:18.374Z,12.45
2023-01-20T04:03:48.235Z,14.05
2023-01-20T04:06:16.474Z,13.80
2023-01-20T04:08:48.783Z,14.50
2023-01-20T04:11:15.745Z,13.95
2023-01-20T04:13:42.641Z,13.93
2023-01-20T04:16:16.686Z,12.88
2023-01-20T04:18:46.876Z,12.48
2023-01-20T04:21:29.896Z,13.23
2023-01-20T04:24:14.735Z,13.15
2023-01-20T04:26:41.661Z,13.05
2023-01-20T04:29:10.560Z,12.10
2023-01-20T04:31:39.706Z,12.20
2023-01-20T04:34:06.589Z,12.20
2023-01-20T04:36:33.347Z,12.00
2023-01-20T04:39:00.080Z,11.65
2023-01-20T04:41:26.830Z,12.93
2023-01-20T04:43:53.580Z,12.25
2023-01-20T04:46:20.396Z,12.45
2023-01-20T04:48:47.253Z,12.25
2023-01-20T04:51:15.072Z,11.80
2023-01-20T04:53:42.076Z,13.18
2023-01-20T04:56:15.678Z,14.35
2023-01-20T04:58:42.788Z,13.00
2023-01-20T05:01:09.808Z,12.80
2023-01-20T05:03:37.108Z,13.13
2023-01-20T05:06:04.215Z,12.60
2023-01-20T05:08:30.945Z,10.98
2023-01-20T05:10:57.770Z,12.68
2023-01-20T05:13:24.619Z,12.48
2023-01-20T05:15:51.428Z,12.68
2023-01-20T05:18:18.212Z,12.75
2023-01-20T05:20:46.528Z,12.15
2023-01-20T05:23:13.327Z,13.20
2023-01-20T05:25:40.229Z,14.43
2023-01-20T05:28:07.037Z,12.95
2023-01-20T05:30:33.934Z,13.23
2023-01-20T05:33:00.822Z,13.82
2023-01-20T05:35:27.567Z,15.65
2023-01-20T05:37:55.126Z,15.02
2023-01-20T05:40:22.311Z,13.90
2023-01-20T05:42:49.093Z,14.23
2023-01-20T05:45:16.376Z,13.98
2023-01-20T05:47:43.346Z,13.55
2023-01-20T05:50:10.903Z,14.45
2023-01-20T05:52:37.713Z,13.88
2023-01-20T05:55:05.270Z,14.35
2023-01-20T05:57:32.095Z,14.48
2023-01-20T05:59:58.868Z,14.68
2023-01-20T06:02:25.708Z,15.82
2023-01-20T06:04:52.558Z,14.27
2023-01-20T06:07:19.337Z,14.07
2023-01-20T06:09:46.100Z,12.43
2023-01-20T06:12:12.975Z,13.10
2023-01-20T06:14:39.800Z,14.63
2023-01-20T06:17:06.647Z,13.38
2023-01-20T06:19:33.418Z,13.27
2023-01-20T06:22:00.173Z,13.15
2023-01-20T06:24:26.927Z,14.30
2023-01-20T06:26:53.804Z,12.95
2023-01-20T06:29:21.068Z,13.57
2023-01-20T06:31:48.324Z,13.00
2023-01-20T06:34:15.136Z,14.32
2023-01-20T06:36:42.020Z,14.63
2023-01-20T06:39:08.852Z,13.60
2023-01-20T06:41:35.629Z,13.32
2023-01-20T06:44:02.366Z,13.90
2023-01-20T06:46:29.290Z,13.95
2023-01-20T06:49:00.802Z,14.85
2023-01-20T06:51:29.722Z,12.68
2023-01-20T06:53:57.634Z,13.25
2023-01-20T06:56:24.532Z,14.77
2023-01-20T06:58:51.376Z,15.35
2023-01-20T07:01:24.311Z,15.15
2023-01-20T07:03:51.322Z,17.27
2023-01-20T07:06:38.721Z,15.68
2023-01-20T07:09:07.317Z,15.35
2023-01-20T07:11:35.816Z,14.43
2023-01-20T07:14:03.846Z,14.35
2023-01-20T07:16:30.798Z,14.55
2023-01-20T07:18:57.589Z,16.70
2023-01-20T07:21:26.385Z,17.00
2023-01-20T07:23:53.602Z,17.10
2023-01-20T07:26:22.899Z,18.90
2023-01-20T07:28:49.821Z,14.32
2023-01-20T07:31:19.262Z,15.07
2023-01-20T07:33:46.559Z,16.90
2023-01-20T07:36:14.627Z,16.15
2023-01-20T07:38:41.951Z,14.07
2023-01-20T07:41:15.796Z,14.35
2023-01-20T07:43:47.452Z,14.23
2023-01-20T07:46:14.827Z,13.40
2023-01-20T07:48:41.966Z,13.57
2023-01-20T07:51:11.469Z,15.00
2023-01-20T07:53:40.801Z,14.63
2023-01-20T07:56:13.033Z,14.77
2023-01-20T07:58:39.786Z,14.70
2023-01-20T08:01:11.499Z,14.35
2023-01-20T08:03:38.458Z,14.73
2023-01-20T08:06:07.506Z,13.60
2023-01-20T08:08:34.625Z,14.23
2023-01-20T08:11:01.763Z,14.65
2023-01-20T08:13:29.763Z,14.55
2023-01-20T08:15:59.719Z,14.30
2023-01-20T08:18:26.572Z,13.68
2023-01-20T08:20:53.504Z,14.63
2023-01-20T08:23:20.317Z,14.35
2023-01-20T08:25:47.054Z,14.43
2023-01-20T08:28:13.846Z,14.63
2023-01-20T08:30:40.723Z,13.60
2023-01-20T08:33:07.657Z,14.38
2023-01-20T08:35:36.400Z,13.18
2023-01-20T08:38:03.587Z,14.27
2023-01-20T08:40:30.345Z,13.57
2023-01-20T08:42:57.390Z,13.93
2023-01-20T08:45:24.215Z,13.43
2023-01-20T08:47:51.081Z,14.25
2023-01-20T08:50:18.301Z,13.98
2023-01-20T08:52:45.030Z,14.48
2023-01-20T08:55:12.044Z,12.45
2023-01-20T08:57:38.997Z,14.07
2023-01-20T09:00:09.346Z,12.63
2023-01-20T09:02:37.734Z,14.45
2023-01-20T09:05:05.580Z,13.48
2023-01-20T09:07:32.369Z,14.32
2023-01-20T09:09:59.830Z,14.25
2023-01-20T09:12:26.607Z,13.23
2023-01-20T09:14:53.516Z,14.13
2023-01-20T09:17:20.348Z,13.45
2023-01-20T09:19:47.076Z,14.07
2023-01-20T09:22:15.823Z,14.07
2023-01-20T09:24:43.226Z,13.95
2023-01-20T09:27:10.107Z,14.73
2023-01-20T09:29:36.866Z,14.93
2023-01-20T09:32:03.877Z,15.65
2023-01-20T09:34:31.515Z,16.50
2023-01-20T09:37:20.749Z,14.23
2023-01-20T09:40:06.918Z,14.18
2023-01-20T09:43:10.224Z,14.85
2023-01-20T09:45:44.933Z,14.90
2023-01-20T09:48:39.910Z,15.15
2023-01-20T09:51:34.237Z,16.48
2023-01-20T09:54:13.548Z,16.58
2023-01-20T09:56:46.879Z,15.68
2023-01-20T09:59:41.069Z,14.55
2023-01-20T10:02:17.553Z,14.98
2023-01-20T10:04:51.428Z,14.75
2023-01-20T10:07:34.408Z,14.68
2023-01-20T10:10:10.433Z,13.88
2023-01-20T10:13:02.399Z,13.63
2023-01-20T10:15:35.088Z,14.98
2023-01-20T10:18:09.279Z,14.23
2023-01-20T10:20:48.939Z,13.63
2023-01-20T10:23:37.726Z,14.75
2023-01-20T10:26:38.744Z,14.75
2023-01-20T10:29:09.923Z,13.60
2023-01-20T10:31:49.204Z,14.88
2023-01-20T10:34:21.408Z,13.07
2023-01-20T10:37:04.745Z,14.15
2023-01-20T10:39:40.714Z,13.70
2023-01-20T10:44:39.268Z,12.43
2023-01-20T10:47:14.836Z,13.85
2023-01-20T10:50:09.577Z,12.40
2023-01-20T10:52:36.443Z,13.10
2023-01-20T10:55:38.310Z,12.45
2023-01-20T10:58:23.994Z,12.77
2023-01-20T11:00:51.567Z,11.60
2023-01-20T11:03:21.339Z,13.20
2023-01-20T11:05:49.701Z,13.05
2023-01-20T11:08:20.422Z,12.77
2023-01-20T11:10:51.615Z,13.43
2023-01-20T11:13:18.517Z,13.07
2023-01-20T11:15:53.504Z,12.07
2023-01-20T11:18:23.718Z,12.40
2023-01-20T11:21:05.801Z,13.15
2023-01-20T11:23:38.343Z,11.93
2023-01-20T11:26:10.155Z,11.65
2023-01-20T11:28:57.223Z,11.95
2023-01-20T11:31:44.257Z,12.77
2023-01-20T11:34:35.443Z,10.98
2023-01-20T11:37:05.292Z,10.88
2023-01-20T11:39:43.841Z,11.02
2023-01-20T11:42:22.637Z,10.73
2023-01-20T11:44:54.480Z,11.15
2023-01-20T11:47:30.646Z,10.55
2023-01-20T11:50:09.653Z,10.35
2023-01-20T11:52:42.665Z,11.98
2023-01-20T11:55:18.040Z,10.45
2023-01-20T11:57:57.798Z,11.15
2023-01-20T12:00:41.056Z,11.60
2023-01-20T12:03:10.882Z,10.98
2023-01-20T12:05:59.647Z,10.73
2023-01-20T12:08:39.304Z,11.57
2023-01-20T12:11:08.171Z,12.10
2023-01-20T12:14:21.117Z,11.55
2023-01-20T12:17:00.986Z,10.98
2023-01-20T12:19:54.371Z,11.68
2023-01-20T12:22:27.620Z,11.45
2023-01-20T12:25:08.545Z,12.45
2023-01-20T12:27:50.121Z,11.70
2023-01-20T12:30:40.490Z,11.40
2023-01-20T12:33:36.735Z,11.60
2023-01-20T12:36:09.681Z,11.88
2023-01-20T12:39:10.514Z,12.00
2023-01-20T12:42:05.934Z,11.63
2023-01-20T12:44:57.391Z,11.48
2023-01-20T12:47:41.896Z,12.00
2023-01-20T12:50:33.309Z,12.05
2023-01-20T12:53:28.330Z,12.40
2023-01-20T12:56:13.901Z,12.60
2023-01-20T12:58:52.607Z,11.50
2023-01-20T13:01:29.852Z,11.38
2023-01-20T13:03:56.648Z,12.40
2023-01-20T13:06:42.648Z,13.02
2023-01-20T13:09:17.946Z,11.15
2023-01-20T13:11:48.294Z,11.90
2023-01-20T13:14:21.207Z,11.43
2023-01-20T13:17:15.548Z,10.40
2023-01-20T13:19:45.664Z,11.30
2023-01-20T13:22:20.874Z,11.18
2023-01-20T13:24:52.858Z,11.95
2023-01-20T13:27:30.417Z,11.18
2023-01-20T13:29:59.586Z,11.35
2023-01-20T13:32:28.468Z,10.93
2023-01-20T13:34:55.721Z,10.90
2023-01-20T13:37:32.869Z,10.65
2023-01-20T13:40:00.476Z,10.32
2023-01-20T13:42:27.189Z,10.73
2023-01-20T13:45:11.764Z,10.45
2023-01-20T13:47:59.618Z,11.77
2023-01-20T13:50:34.543Z,11.43
2023-01-20T13:53:14.089Z,10.60
2023-01-20T13:55:40.811Z,11.18
2023-01-20T13:58:40.000Z,10.27
2023-01-20T14:01:13.622Z,9.15
2023-01-20T14:03:40.687Z,10.23
2023-01-20T14:06:28.512Z,9.60
2023-01-20T14:08:55.376Z,10.32
2023-01-20T14:11:24.443Z,8.95
2023-01-20T14:14:02.185Z,9.50
2023-01-20T14:16:31.246Z,8.88
2023-01-20T14:19:00.480Z,9.93
2023-01-20T14:21:29.559Z,10.25
2023-01-20T14:23:56.880Z,9.43
2023-01-20T14:26:28.936Z,9.63
2023-01-20T14:29:01.042Z,8.93
2023-01-20T14:31:40.462Z,8.50
2023-01-20T14:34:23.409Z,9.57
2023-01-20T14:36:51.285Z,9.60
2023-01-20T14:39:26.775Z,9.02
2023-01-20T14:41:56.319Z,8.95
2023-01-20T14:44:29.529Z,8.85
2023-01-20T14:47:02.550Z,8.68
2023-01-20T14:49:35.580Z,8.02
2023-01-20T14:52:04.144Z,8.65
2023-01-20T14:54:34.359Z,10.07
2023-01-20T14:57:13.800Z,9.70
2023-01-20T14:59:40.820Z,10.43
2023-01-20T15:02:23.055Z,11.35
2023-01-20T15:04:49.874Z,13.68
2023-01-20T15:07:20.679Z,13.38
2023-01-20T15:09:59.849Z,17.52
2023-01-20T15:12:35.839Z,17.77
2023-01-20T15:15:31.615Z,15.50
2023-01-20T15:18:19.900Z,15.85
2023-01-20T15:21:03.808Z,15.48
2023-01-20T15:23:39.551Z,14.75
2023-01-20T15:26:19.923Z,16.65
2023-01-20T15:28:46.717Z,14.60
2023-01-20T15:31:17.326Z,15.57
2023-01-20T15:33:44.447Z,14.57
2023-01-20T15:36:17.229Z,14.73
2023-01-20T15:38:44.082Z,14.95
2023-01-20T15:41:14.296Z,15.70
2023-01-20T15:43:42.440Z,16.38
2023-01-20T15:46:12.021Z,15.95
2023-01-20T15:48:39.315Z,16.23
2023-01-20T15:51:09.371Z,16.85
2023-01-20T15:53:36.169Z,15.18
2023-01-20T15:56:03.039Z,15.40
2023-01-20T15:58:32.938Z,15.50
2023-01-20T16:01:00.136Z,14.85
2023-01-20T16:03:28.105Z,15.88
2023-01-20T16:05:56.110Z,17.90
2023-01-20T16:08:26.813Z,17.75
2023-01-20T16:10:53.561Z,19.02
2023-01-20T16:13:20.284Z,17.65
2023-01-20T16:15:47.104Z,19.83
2023-01-20T16:18:16.302Z,20.48
2023-01-20T16:20:45.793Z,21.52
2023-01-20T16:23:12.892Z,22.90
2023-01-20T16:25:40.304Z,22.40
2023-01-20T16:28:15.839Z,19.25
2023-01-20T16:30:42.781Z,20.13
2023-01-20T16:33:19.308Z,20.00
2023-01-20T16:35:46.458Z,17.70
2023-01-20T16:38:15.448Z,18.30
2023-01-20T16:40:48.057Z,14.55
2023-01-20T16:43:15.016Z,17.13
2023-01-20T16:45:41.968Z,17.27
2023-01-20T16:48:09.298Z,16.50
2023-01-20T16:50:37.197Z,15.05
2023-01-20T16:53:04.749Z,16.38
2023-01-20T16:55:31.546Z,17.75
2023-01-20T16:57:58.258Z,16.02
2023-01-20T17:00:25.079Z,15.88
2023-01-20T17:02:52.648Z,15.38
2023-01-20T17:05:22.614Z,16.05
2023-01-20T17:07:50.301Z,15.70
2023-01-20T17:10:18.419Z,15.13
2023-01-20T17:12:48.634Z,15.80
2023-01-20T17:15:15.758Z,16.10
2023-01-20T17:17:42.641Z,15.75
2023-01-20T17:20:10.231Z,15.82
2023-01-20T17:22:38.507Z,15.02
2023-01-20T17:25:07.601Z,15.60
2023-01-20T17:27:35.273Z,14.98
2023-01-20T17:30:02.179Z,14.93
2023-01-20T17:32:29.096Z,16.48
2023-01-20T17:34:55.882Z,16.55
2023-01-20T17:37:22.718Z,16.02
2023-01-20T17:39:49.549Z,14.18
2023-01-20T17:42:17.709Z,15.43
2023-01-20T17:44:44.598Z,13.77
2023-01-20T17:47:12.491Z,16.10
2023-01-20T17:49:39.472Z,15.57
2023-01-20T17:52:06.261Z,14.23
2023-01-20T17:54:33.124Z,15.30
2023-01-20T17:56:59.852Z,14.90
2023-01-20T17:59:26.843Z,13.13
2023-01-20T18:01:54.343Z,15.40
2023-01-20T18:04:21.195Z,15.27
2023-01-20T18:06:48.043Z,15.13
2023-01-20T18:09:14.975Z,16.25
2023-01-20T18:11:43.578Z,15.32
2023-01-20T18:14:10.960Z,15.30
2023-01-20T18:16:41.543Z,14.85
2023-01-20T18:19:12.242Z,14.13
2023-01-20T18:21:40.673Z,14.13
2023-01-20T18:24:09.993Z,14.65
2023-01-20T18:26:38.521Z,16.60
2023-01-20T18:29:08.406Z,15.73
2023-01-20T18:31:35.590Z,14.90
2023-01-20T18:34:05.438Z,16.70
2023-01-20T18:36:38.559Z,17.13
2023-01-20T18:39:14.192Z,17.27
2023-01-20T18:41:41.263Z,17.65
2023-01-20T18:44:08.015Z,16.90
2023-01-20T18:46:34.946Z,17.50
2023-01-20T18:49:02.216Z,17.15
2023-01-20T18:51:30.161Z,14.43
2023-01-20T18:54:06.145Z,17.10
2023-01-20T18:59:01.610Z,16.80
2023-01-20T19:01:34.288Z,19.02
2023-01-20T19:04:02.972Z,18.02
2023-01-20T19:06:34.477Z,18.15
2023-01-20T19:09:01.663Z,20.95
2023-01-20T19:11:35.805Z,20.08
2023-01-20T19:14:02.823Z,20.33
2023-01-20T19:16:33.880Z,22.05
2023-01-20T19:19:03.353Z,23.75
2023-01-20T19:21:32.477Z,21.10
2023-01-20T19:24:01.643Z,23.98
2023-01-20T19:26:28.569Z,23.75
2023-01-20T19:29:07.175Z,21.27
2023-01-20T19:31:37.212Z,21.25
2023-01-20T19:34:04.660Z,23.45
2023-01-20T19:36:31.615Z,23.45
2023-01-20T19:38:58.950Z,22.40
2023-01-20T19:41:28.179Z,20.17
2023-01-20T19:43:57.194Z,24.30
2023-01-20T19:46:26.033Z,22.33
2023-01-20T19:48:54.556Z,22.33
2023-01-20T19:51:21.778Z,24.02
2023-01-20T19:53:50.228Z,24.40
2023-01-20T19:56:19.203Z,24.50
2023-01-20T19:58:47.658Z,24.13
2023-01-20T20:01:20.027Z,24.58
2023-01-20T20:03:48.106Z,24.15
2023-01-20T20:06:32.691Z,23.45
2023-01-20T20:09:04.944Z,25.67
2023-01-20T20:11:32.923Z,24.15
2023-01-20T20:14:01.727Z,28.30
2023-01-20T20:16:31.800Z,26.25
2023-01-20T20:18:59.221Z,28.13
2023-01-20T20:21:27.135Z,26.90
2023-01-20T20:23:56.122Z,26.45
2023-01-20T20:26:25.659Z,29.92
2023-01-20T20:28:52.771Z,31.42
2023-01-20T20:31:20.464Z,29.35
2023-01-20T20:33:47.433Z,27.20
2023-01-20T20:36:15.735Z,29.30
2023-01-20T20:38:42.805Z,30.52
2023-01-20T20:41:10.186Z,27.60
2023-01-20T20:43:38.619Z,29.55
2023-01-20T20:46:07.018Z,28.58
2023-01-20T20:48:35.260Z,30.83
2023-01-20T20:51:13.481Z,28.48
2023-01-20T20:53:40.777Z,30.85
2023-01-20T20:56:10.233Z,30.77
2023-01-20T20:58:45.645Z,29.70
2023-01-20T21:01:22.250Z,29.02
2023-01-20T21:03:49.090Z,28.88
2023-01-20T21:06:16.729Z,26.33
2023-01-20T21:08:43.616Z,28.08
2023-01-20T21:11:13.092Z,28.90
2023-01-20T21:13:41.873Z,28.90
2023-01-20T21:16:11.653Z,29.63
2023-01-20T21:18:39.045Z,29.27
2023-01-20T21:21:08.074Z,29.67
2023-01-20T21:23:35.169Z,30.45
2023-01-20T21:26:07.564Z,28.70
2023-01-20T21:28:35.834Z,30.38
2023-01-20T21:31:14.622Z,27.63
2023-01-20T21:33:42.891Z,29.08
2023-01-20T21:36:12.402Z,30.42
2023-01-20T21:38:42.957Z,28.77
2023-01-20T21:41:11.651Z,30.17
2023-01-20T21:43:58.563Z,27.30
2023-01-20T21:46:29.808Z,30.13
2023-01-20T21:49:15.240Z,31.80
2023-01-20T21:52:00.727Z,30.77
2023-01-20T21:54:29.108Z,32.63
2023-01-20T21:56:56.118Z,35.95
2023-01-20T21:59:22.947Z,34.83
2023-01-20T22:01:49.874Z,32.47
2023-01-20T22:04:16.879Z,33.83
2023-01-20T22:06:44.020Z,33.17
2023-01-20T22:09:11.183Z,35.25
2023-01-20T22:11:37.911Z,31.80
2023-01-20T22:14:04.928Z,33.53
2023-01-20T22:16:32.384Z,28.33
2023-01-20T22:18:59.338Z,33.75
2023-01-20T22:21:26.720Z,34.05
2023-01-20T22:23:53.840Z,30.40
2023-01-20T22:26:20.980Z,28.95
2023-01-20T22:28:47.784Z,30.30
2023-01-20T22:31:24.067Z,30.58
2023-01-20T22:33:55.459Z,21.98
2023-01-20T22:36:23.454Z,31.50
2023-01-20T22:38:51.537Z,30.17
2023-01-20T22:41:19.525Z,30.73
2023-01-20T22:43:48.003Z,31.70
2023-01-20T22:46:17.649Z,28.75
2023-01-20T22:48:45.356Z,31.38
2023-01-20T22:51:14.165Z,30.90
2023-01-20T22:53:41.447Z,30.10
2023-01-20T22:56:14.322Z,31.00
2023-01-20T22:58:41.358Z,28.80
2023-01-20T23:01:15.612Z,33.80
2023-01-20T23:03:43.170Z,30.50
2023-01-20T23:06:11.896Z,29.55
2023-01-20T23:08:38.924Z,32.83
2023-01-20T23:11:09.576Z,31.42
2023-01-20T23:13:38.515Z,30.55
2023-01-20T23:16:09.760Z,31.90
2023-01-20T23:18:36.932Z,32.88
2023-01-20T23:21:05.947Z,34.47
2023-01-20T23:23:33.593Z,34.42
2023-01-20T23:26:08.102Z,31.08
2023-01-20T23:28:36.320Z,33.40
2023-01-20T23:31:05.501Z,33.38
2023-01-20T23:33:32.992Z,32.35
2023-01-20T23:36:07.567Z,31.77
2023-01-20T23:38:34.542Z,32.25
2023-01-20T23:41:02.474Z,33.03
2023-01-20T23:43:30.661Z,32.83
2023-01-20T23:45:59.162Z,36.47
2023-01-20T23:48:26.576Z,33.28
2023-01-20T23:50:53.869Z,33.10
2023-01-20T23:53:21.088Z,33.58
2023-01-20T23:55:48.066Z,33.83
2023-01-20T23:58:15.272Z,32.03
